Time;durP1;ratioP1;P1;durP2;ratioP2;P2;SDS_P1;SDS_P2;PMS_P1;PMS_P2;Temp;Humidity;BMP_temperature;BMP_pressure;BME280_temperature;BME280_humidity;BME280_pressure;Samples;Min_cycle;Max_cycle;Signal;HPM_P1;HPM_P2
2023/02/07 00:01:37;;;;;;;16.70;11.00;;;;;;;-4.84;100.00;101181.84;107532;1271;22558;-67
2023/02/07 00:04:08;;;;;;;16.80;11.20;;;;;;;-4.87;100.00;101175.41;107542;1268;24250;-68
2023/02/07 00:06:36;;;;;;;16.40;10.50;;;;;;;-4.89;100.00;101172.73;107459;1268;22973;-67
2023/02/07 00:09:06;;;;;;;15.00;9.90;;;;;;;-4.88;100.00;101174.82;107609;1269;23880;-67
2023/02/07 00:11:35;;;;;;;16.60;11.30;;;;;;;-4.90;100.00;101175.30;109022;1268;24283;-68
2023/02/07 00:14:04;;;;;;;17.70;11.70;;;;;;;-4.86;100.00;101167.92;107693;1268;22553;-67
2023/02/07 00:16:32;;;;;;;17.60;10.80;;;;;;;-4.80;100.00;101165.58;107611;1269;23266;-67
2023/02/07 00:19:01;;;;;;;18.20;10.30;;;;;;;-4.76;100.00;101167.52;107660;1269;26663;-67
2023/02/07 00:21:30;;;;;;;14.70;10.30;;;;;;;-4.77;100.00;101168.15;110197;1269;23130;-68
2023/02/07 00:23:58;;;;;;;17.00;10.80;;;;;;;-4.82;100.00;101168.61;110248;1268;22440;-67
2023/02/07 00:26:26;;;;;;;17.30;10.70;;;;;;;-4.86;100.00;101168.43;110270;1268;22340;-67
2023/02/07 00:28:55;;;;;;;20.30;12.20;;;;;;;-4.88;100.00;101164.14;110287;1271;23063;-67
2023/02/07 00:31:25;;;;;;;19.50;11.30;;;;;;;-4.83;100.00;101157.70;110213;1269;22397;-67
2023/02/07 00:34:02;;;;;;;18.30;11.50;;;;;;;-4.79;100.00;101152.38;110095;1275;22405;-67
2023/02/07 00:36:32;;;;;;;16.20;11.10;;;;;;;-4.75;100.00;101153.23;110271;1269;22371;-67
2023/02/07 00:39:04;;;;;;;17.80;11.40;;;;;;;-4.74;100.00;101151.41;110247;1269;22493;-67
2023/02/07 00:41:32;;;;;;;18.10;11.20;;;;;;;-4.78;100.00;101150.09;110157;1269;23312;-67
2023/02/07 00:44:01;;;;;;;22.70;12.10;;;;;;;-4.80;100.00;101149.61;110243;1268;22264;-67
2023/02/07 00:46:29;;;;;;;17.20;11.80;;;;;;;-4.81;100.00;101149.39;110231;1268;23203;-67
2023/02/07 00:48:58;;;;;;;19.20;11.90;;;;;;;-4.76;100.00;101144.86;110271;1268;23904;-68
2023/02/07 00:51:26;;;;;;;18.10;12.00;;;;;;;-4.68;100.00;101141.04;110261;1269;22387;-68
2023/02/07 00:53:54;;;;;;;20.80;11.80;;;;;;;-4.59;100.00;101140.97;110284;1271;23096;-68
2023/02/07 00:56:25;;;;;;;18.10;11.30;;;;;;;-4.59;100.00;101138.27;110275;1269;22431;-67
2023/02/07 00:58:53;;;;;;;17.70;11.00;;;;;;;-4.61;100.00;101137.77;110245;1269;23544;-68
2023/02/07 01:01:23;;;;;;;18.40;11.40;;;;;;;-4.64;100.00;101136.98;110323;1268;22367;-68
2023/02/07 01:03:52;;;;;;;22.30;13.30;;;;;;;-4.67;100.00;101137.11;110131;1271;22189;-67
2023/02/07 01:06:21;;;;;;;20.30;12.60;;;;;;;-4.65;100.00;101133.70;110205;1275;22294;-67
2023/02/07 01:08:50;;;;;;;18.10;11.20;;;;;;;-4.61;100.00;101135.63;110373;1276;23348;-68
2023/02/07 01:11:18;;;;;;;20.00;11.70;;;;;;;-4.57;100.00;101134.54;110286;1269;22363;-68
2023/02/07 01:13:51;;;;;;;20.50;11.80;;;;;;;-4.55;100.00;101132.75;110372;1276;22914;-68
2023/02/07 01:16:30;;;;;;;17.90;11.50;;;;;;;-4.53;100.00;101131.02;110183;1273;22460;-68
2023/02/07 01:19:00;;;;;;;;;;;;;;;-4.58;100.00;101129.63;110346;1271;22387;-68
2023/02/07 01:21:29;;;;;;;20.20;11.60;;;;;;;-4.65;100.00;101125.90;110317;1269;22363;-68
2023/02/07 01:23:57;;;;;;;17.60;10.30;;;;;;;-4.65;100.00;101122.70;110361;1268;22188;-66
2023/02/07 01:26:25;;;;;;;17.80;10.20;;;;;;;-4.59;100.00;101126.24;110357;1269;22621;-66
2023/02/07 01:28:54;;;;;;;15.80;10.50;;;;;;;-4.57;100.00;101124.24;110269;1269;22337;-68
2023/02/07 01:31:22;;;;;;;18.00;9.60;;;;;;;-4.58;100.00;101119.92;108126;1270;25201;-68
2023/02/07 01:33:55;;;;;;;14.80;9.70;;;;;;;-4.61;100.00;101120.52;107514;1269;24259;-68
2023/02/07 01:36:25;;;;;;;17.40;9.20;;;;;;;-4.63;100.00;101122.70;107664;1271;24353;-68
2023/02/07 01:38:57;;;;;;;15.10;9.40;;;;;;;-4.66;100.00;101116.05;108252;1268;25598;-67
2023/02/07 01:41:26;;;;;;;14.60;9.40;;;;;;;-4.61;100.00;101113.67;107735;1269;23670;-67
2023/02/07 01:43:56;;;;;;;14.70;9.10;;;;;;;-4.57;100.00;101115.41;107528;1272;22538;-67
2023/02/07 01:46:25;;;;;;;14.90;8.80;;;;;;;-4.53;100.00;101115.40;108128;1269;23593;-67
2023/02/07 01:48:56;;;;;;;13.40;8.10;;;;;;;-4.53;100.00;101116.42;107600;1268;22529;-67
2023/02/07 01:51:24;;;;;;;12.80;8.30;;;;;;;-4.53;100.00;101112.77;107394;1271;24435;-68
2023/02/07 01:53:55;;;;;;;14.00;8.80;;;;;;;-4.55;100.00;101112.73;107407;1269;26523;-67
2023/02/07 01:56:23;;;;;;;16.50;9.10;;;;;;;-4.56;100.00;101108.22;107468;1268;22997;-68
2023/02/07 01:59:01;;;;;;;11.80;8.00;;;;;;;-4.48;100.00;101116.23;107432;1269;26985;-68
2023/02/07 02:01:31;;;;;;;13.40;7.30;;;;;;;-4.40;100.00;101116.36;107294;1274;22733;-67
2023/02/07 02:03:59;;;;;;;14.50;8.30;;;;;;;-4.34;100.00;101118.02;107543;1268;25448;-68
2023/02/07 02:06:29;;;;;;;12.20;7.40;;;;;;;-4.31;100.00;101112.85;107457;1269;26516;-68
2023/02/07 02:08:58;;;;;;;13.20;8.10;;;;;;;-4.33;100.00;101109.30;110187;1269;23279;-66
2023/02/07 02:11:44;;;;;;;11.10;7.40;;;;;;;-4.36;100.00;101108.73;110104;1271;23262;-67
2023/02/07 02:14:17;;;;;;;13.80;8.40;;;;;;;-4.38;100.00;101098.26;110104;1271;22439;-67
2023/02/07 02:16:56;;;;;;;16.40;9.90;;;;;;;-4.37;100.00;101098.73;109947;1272;22623;-66
2023/02/07 02:19:54;;;;;;;19.40;11.20;;;;;;;-4.29;100.00;101099.89;107540;1269;25359;-67
2023/02/07 02:22:44;;;;;;;17.80;10.30;;;;;;;-4.24;100.00;101097.75;107283;1269;25344;-66
2023/02/07 02:25:27;;;;;;;18.10;10.70;;;;;;;-4.19;100.00;101095.86;107431;1271;25294;-67
2023/02/07 02:28:24;;;;;;;17.40;10.20;;;;;;;-4.22;100.00;101094.09;107528;1269;24221;-67
2023/02/07 02:31:20;;;;;;;16.50;10.70;;;;;;;-4.25;100.00;101093.64;107532;1272;25047;-66
2023/02/07 02:34:14;;;;;;;18.50;11.20;;;;;;;-4.27;100.00;101092.30;107575;1275;23548;-67
2023/02/07 02:37:12;;;;;;;21.70;12.60;;;;;;;-4.27;100.00;101091.19;107366;1271;23655;-67
2023/02/07 02:39:49;;;;;;;21.10;12.60;;;;;;;-4.20;100.00;101090.49;107526;1270;27596;-67
2023/02/07 02:42:48;;;;;;;20.40;12.60;;;;;;;-4.14;100.00;101093.66;107722;1269;24347;-67
2023/02/07 02:45:27;;;;;;;19.30;11.30;;;;;;;-4.07;100.00;101091.38;107492;1271;22643;-67
2023/02/07 02:47:55;;;;;;;17.70;10.40;;;;;;;-4.11;100.00;101087.86;107502;1270;23277;-67
2023/02/07 02:50:28;;;;;;;16.20;10.20;;;;;;;-4.15;100.00;101086.70;107563;1268;22547;-67
2023/02/07 02:52:57;;;;;;;18.80;9.90;;;;;;;-4.19;100.00;101089.68;107565;1269;26327;-67
2023/02/07 02:56:04;;;;;;;14.90;8.50;;;;;;;-4.18;100.00;101086.98;107520;1274;22662;-67
2023/02/07 02:58:58;;;;;;;15.60;8.50;;;;;;;-4.13;100.00;101092.15;107415;1270;25383;-67
2023/02/07 03:01:48;;;;;;;11.60;7.30;;;;;;;-4.13;100.00;101092.82;108769;1273;22221;-68
2023/02/07 03:04:32;;;;;;;11.50;6.90;;;;;;;-4.12;100.00;101086.05;110252;1276;22300;-67
2023/02/07 03:07:20;;;;;;;11.60;6.50;;;;;;;-4.16;100.00;101086.95;110356;1276;22611;-68
2023/02/07 03:09:59;;;;;;;10.90;7.10;;;;;;;-4.22;100.00;101090.66;110218;1276;22310;-68
2023/02/07 03:12:42;;;;;;;12.00;6.50;;;;;;;-4.23;100.00;101088.45;110326;1276;23111;-68
2023/02/07 03:15:25;;;;;;;12.40;7.00;;;;;;;-4.22;100.00;101091.02;110212;1275;22202;-68
2023/02/07 03:18:09;;;;;;;12.50;6.30;;;;;;;-4.12;100.00;101086.91;110159;1276;22448;-68
2023/02/07 03:21:11;;;;;;;9.60;6.10;;;;;;;-4.05;100.00;101081.29;110232;1275;22393;-68
2023/02/07 03:23:39;;;;;;;9.50;6.20;;;;;;;-3.98;100.00;101080.27;110242;1269;22225;-68
2023/02/07 03:26:07;;;;;;;9.80;5.80;;;;;;;-3.95;100.00;101079.66;110123;1276;22423;-68
2023/02/07 03:28:36;;;;;;;10.10;6.50;;;;;;;-3.93;100.00;101078.73;110317;1276;22303;-68
2023/02/07 03:31:04;;;;;;;11.90;7.80;;;;;;;-3.91;100.00;101080.30;107796;1273;25508;-68
2023/02/07 03:33:32;;;;;;;11.50;7.10;;;;;;;-3.88;100.00;101077.34;109316;1270;23241;-68
2023/02/07 03:36:10;;;;;;;11.10;7.70;;;;;;;-3.82;100.00;101075.86;110246;1269;23126;-68
2023/02/07 03:38:38;;;;;;;10.60;7.20;;;;;;;-3.74;100.00;101072.65;110259;1270;22284;-68
2023/02/07 03:41:10;;;;;;;13.90;7.30;;;;;;;-3.68;100.00;101076.07;110133;1269;22380;-68
2023/02/07 03:43:41;;;;;;;11.70;7.90;;;;;;;-3.67;100.00;101080.27;110203;1268;22417;-68
2023/02/07 03:46:10;;;;;;;13.90;8.80;;;;;;;-3.67;100.00;101082.95;109479;1269;22581;-68
2023/02/07 03:48:38;;;;;;;13.20;9.20;;;;;;;-3.67;100.00;101089.48;107354;1272;22642;-67
2023/02/07 03:51:06;;;;;;;13.20;9.60;;;;;;;-3.66;100.00;101093.11;107473;1269;22571;-67
2023/02/07 03:53:34;;;;;;;14.90;9.70;;;;;;;-3.60;100.00;101089.89;107655;1270;23653;-67
2023/02/07 03:56:03;;;;;;;17.30;9.50;;;;;;;-3.54;100.00;101090.17;107472;1271;23220;-67
2023/02/07 03:58:31;;;;;;;16.20;9.80;;;;;;;-3.51;100.00;101093.60;107244;1269;23466;-68
2023/02/07 04:01:01;;;;;;;13.50;10.00;;;;;;;-3.53;100.00;101092.24;107344;1268;22564;-67
2023/02/07 04:03:30;;;;;;;16.20;10.70;;;;;;;-3.57;100.00;101097.55;109878;1271;22390;-67
2023/02/07 04:05:58;;;;;;;15.70;10.60;;;;;;;-3.62;100.00;101098.42;110248;1274;22405;-67
2023/02/07 04:08:27;;;;;;;16.40;10.80;;;;;;;-3.66;100.00;101096.12;108240;1274;22526;-67
2023/02/07 04:10:59;;;;;;;14.20;9.70;;;;;;;-3.63;100.00;101097.25;107489;1259;22954;-67
2023/02/07 04:13:28;;;;;;;20.50;12.00;;;;;;;-3.58;100.00;101101.21;108015;1270;23450;-67
2023/02/07 04:15:57;;;;;;;19.00;11.70;;;;;;;-3.57;100.00;101102.73;107505;1269;23352;-66
2023/02/07 04:18:25;;;;;;;21.40;12.70;;;;;;;-3.63;100.00;101102.60;107559;1269;24377;-67
2023/02/07 04:21:01;;;;;;;23.70;13.60;;;;;;;-3.68;100.00;101109.48;107770;1269;25351;-67
2023/02/07 04:23:29;;;;;;;21.00;12.40;;;;;;;-3.72;100.00;101109.17;107636;1269;22627;-67
2023/02/07 04:25:57;;;;;;;17.90;10.30;;;;;;;-3.72;100.00;101107.15;107570;1273;22719;-67
2023/02/07 04:28:26;;;;;;;14.80;9.00;;;;;;;-3.65;100.00;101114.69;107380;1268;182742;-67
2023/02/07 04:32:34;;;;;;;14.50;8.20;;;;;;;-3.58;100.00;101110.55;104292;1305;545027;-67
2023/02/07 04:35:02;;;;;;;14.10;7.60;;;;;;;-3.66;100.00;101121.73;106616;1283;22630;-67
2023/02/07 04:37:31;;;;;;;13.60;7.60;;;;;;;-3.72;100.00;101121.73;106503;1283;22670;-66
2023/02/07 04:39:59;;;;;;;14.70;7.90;;;;;;;-3.74;100.00;101123.35;106581;1282;24634;-67
2023/02/07 04:42:27;;;;;;;13.80;8.70;;;;;;;-3.74;100.00;101125.48;106770;1282;22660;-67
2023/02/07 04:44:55;;;;;;;16.10;8.90;;;;;;;-3.77;100.00;101133.36;106595;1282;22658;-68
2023/02/07 04:47:24;;;;;;;17.90;9.20;;;;;;;-3.81;100.00;101134.36;106677;1280;214808;-68
2023/02/07 04:49:52;;;;;;;19.00;11.00;;;;;;;-3.82;100.00;101135.09;106886;1280;24189;-66
2023/02/07 04:52:20;;;;;;;20.50;11.70;;;;;;;-3.77;100.00;101139.39;106956;1279;25366;-68
2023/02/07 04:54:48;;;;;;;18.70;10.50;;;;;;;-3.73;100.00;101140.41;106893;1279;22786;-67
2023/02/07 04:57:17;;;;;;;19.60;11.20;;;;;;;-3.71;100.00;101144.48;106639;1280;23140;-68
2023/02/07 04:59:45;;;;;;;17.00;9.90;;;;;;;-3.75;100.00;101142.58;106688;1280;25104;-67
2023/02/07 05:02:13;;;;;;;17.30;9.80;;;;;;;-3.80;100.00;101149.83;106735;1280;23148;-68
2023/02/07 05:04:42;;;;;;;16.00;10.10;;;;;;;-3.82;100.00;101144.53;106721;1280;23269;-67
2023/02/07 05:07:10;;;;;;;19.80;11.80;;;;;;;-3.84;100.00;101150.05;106759;1287;23908;-67
2023/02/07 05:09:38;;;;;;;20.10;12.10;;;;;;;-3.80;100.00;101156.71;107352;1258;22583;-67
2023/02/07 05:12:07;;;;;;;20.60;12.50;;;;;;;-3.74;100.00;101159.13;107331;1277;22617;-67
2023/02/07 05:14:38;;;;;;;21.70;12.20;;;;;;;-3.71;100.00;101164.34;107054;1279;25350;-67
2023/02/07 05:17:06;;;;;;;21.60;13.80;;;;;;;-3.74;100.00;101168.59;107106;1277;22523;-67
2023/02/07 05:19:34;;;;;;;23.20;14.10;;;;;;;-3.78;100.00;101169.17;107126;1280;22662;-67
2023/02/07 05:22:02;;;;;;;23.40;14.20;;;;;;;-3.82;100.00;101165.84;107000;1280;22610;-67
2023/02/07 05:24:30;;;;;;;27.80;16.10;;;;;;;-3.82;100.00;101165.65;107146;1278;24238;-67
2023/02/07 05:26:58;;;;;;;31.30;19.60;;;;;;;-3.83;100.00;101169.66;107252;1274;22556;-67
2023/02/07 05:29:26;;;;;;;30.60;17.90;;;;;;;-3.91;100.00;101171.66;107306;1274;22648;-67
2023/02/07 05:34:42;;;;;;;27.50;17.10;;;;;;;-4.11;100.00;101174.00;107071;1274;25017;-67
2023/02/07 05:37:10;;;;;;;29.10;17.30;;;;;;;-4.10;100.00;101172.00;107165;1273;22530;-67
2023/02/07 05:39:38;;;;;;;28.10;17.20;;;;;;;-4.08;100.00;101180.35;107185;1273;25529;-67
2023/02/07 05:42:06;;;;;;;29.40;17.70;;;;;;;-4.12;100.00;101183.00;107139;1273;25539;-67
2023/02/07 05:44:34;;;;;;;28.40;17.30;;;;;;;-4.20;100.00;101185.85;107160;1272;25856;-67
2023/02/07 05:47:05;;;;;;;29.00;18.30;;;;;;;-4.25;100.00;101188.70;107141;1272;23380;-67
2023/02/07 05:49:36;;;;;;;28.60;17.30;;;;;;;-4.24;100.00;101185.69;107237;1272;22533;-67
2023/02/07 05:52:04;;;;;;;27.00;16.90;;;;;;;-4.18;100.00;101191.34;107236;1272;22525;-68
2023/02/07 05:54:33;;;;;;;29.60;17.60;;;;;;;-4.22;100.00;101194.57;107231;1272;24396;-68
2023/02/07 05:57:01;;;;;;;28.40;16.90;;;;;;;-4.25;100.00;101196.27;107222;1257;22650;-67
2023/02/07 05:59:29;;;;;;;27.60;17.20;;;;;;;-4.20;100.00;101200.61;107323;1273;22903;-68
2023/02/07 06:01:58;;;;;;;26.60;17.30;;;;;;;-4.17;100.00;101205.98;107167;1272;25355;-67
2023/02/07 06:04:26;;;;;;;27.80;17.80;;;;;;;-4.22;100.00;101205.56;107282;1273;22529;-67
2023/02/07 06:06:54;;;;;;;24.50;15.10;;;;;;;-4.26;100.00;101204.86;107205;1273;22584;-67
2023/02/07 06:09:23;;;;;;;25.80;15.90;;;;;;;-4.22;100.00;101209.67;107141;1272;22583;-67
2023/02/07 06:11:51;;;;;;;23.90;14.90;;;;;;;-4.18;100.00;101209.80;107285;1272;25478;-66
2023/02/07 06:14:20;;;;;;;25.20;16.20;;;;;;;-4.18;100.00;101214.06;107276;1272;22533;-66
2023/02/07 06:16:48;;;;;;;25.90;16.30;;;;;;;-4.21;100.00;101217.90;107318;1273;25306;-65
2023/02/07 06:19:16;;;;;;;26.90;15.20;;;;;;;-4.18;100.00;101220.48;107233;1273;22526;-66
2023/02/07 06:21:45;;;;;;;20.70;12.90;;;;;;;-4.14;100.00;101226.44;107278;1272;23049;-66
2023/02/07 06:24:15;;;;;;;23.40;14.00;;;;;;;-4.11;100.00;101228.15;109867;1273;22404;-66
2023/02/07 06:26:48;;;;;;;20.40;12.60;;;;;;;-4.12;100.00;101226.38;109955;1277;22914;-67
2023/02/07 06:29:16;;;;;;;19.70;12.60;;;;;;;-4.10;100.00;101226.98;110022;1277;22407;-67
2023/02/07 06:31:45;;;;;;;18.20;11.10;;;;;;;-3.98;100.00;101223.55;109957;1272;22328;-67
2023/02/07 06:34:13;;;;;;;17.50;11.70;;;;;;;-3.91;100.00;101223.98;109954;1279;22560;-67
2023/02/07 06:36:41;;;;;;;18.20;11.40;;;;;;;-3.95;100.00;101227.14;110388;1273;22525;-67
2023/02/07 06:39:10;;;;;;;19.40;11.20;;;;;;;-3.93;100.00;101229.86;110299;1276;22974;-66
2023/02/07 06:41:38;;;;;;;20.70;11.90;;;;;;;-3.84;100.00;101232.20;110330;1276;22209;-67
2023/02/07 06:44:06;;;;;;;16.90;11.20;;;;;;;-3.76;100.00;101230.33;110398;1276;22238;-67
2023/02/07 06:46:34;;;;;;;20.40;11.90;;;;;;;-3.75;100.00;101232.17;107739;1276;22656;-67
2023/02/07 06:49:02;;;;;;;17.90;11.70;;;;;;;-3.73;100.00;101235.06;107331;1276;22662;-66
2023/02/07 06:51:31;;;;;;;20.10;12.30;;;;;;;-3.72;100.00;101235.77;107383;1276;25364;-67
2023/02/07 06:54:02;;;;;;;18.60;11.80;;;;;;;-3.73;100.00;101239.94;107500;1276;22923;-66
2023/02/07 06:56:30;;;;;;;18.80;11.80;;;;;;;-3.71;100.00;101241.19;107384;1273;22533;-66
2023/02/07 06:58:58;;;;;;;18.20;12.30;;;;;;;-3.61;100.00;101249.66;107400;1276;23336;-67
2023/02/07 07:01:26;;;;;;;21.70;13.20;;;;;;;-3.59;100.00;101253.41;107395;1276;25341;-68
2023/02/07 07:03:55;;;;;;;22.30;12.90;;;;;;;-3.61;100.00;101255.16;107560;1269;22656;-66
2023/02/07 07:06:23;;;;;;;19.30;12.60;;;;;;;-3.53;100.00;101257.30;107591;1269;23305;-67
2023/02/07 07:08:52;;;;;;;19.80;12.50;;;;;;;-3.51;100.00;101257.89;107471;1270;24310;-66
2023/02/07 07:11:21;;;;;;;20.90;12.70;;;;;;;-3.52;100.00;101269.38;107437;1276;24423;-66
2023/02/07 07:13:49;;;;;;;18.90;11.60;;;;;;;-3.50;100.00;101267.48;107507;1276;25411;-65
2023/02/07 07:16:17;;;;;;;20.10;12.40;;;;;;;-3.54;100.00;101266.77;107527;1270;22644;-66
2023/02/07 07:18:45;;;;;;;21.70;12.80;;;;;;;-3.59;100.00;101262.95;107689;1270;22561;-66
2023/02/07 07:21:13;;;;;;;18.70;12.20;;;;;;;-3.51;100.00;101257.06;110287;1270;23244;-67
2023/02/07 07:23:46;;;;;;;20.20;12.60;;;;;;;-3.44;100.00;101257.11;110314;1269;23081;-66
2023/02/07 07:26:14;;;;;;;20.60;13.60;;;;;;;-3.44;100.00;101259.27;110339;1270;23188;-66
2023/02/07 07:28:42;;;;;;;21.10;12.80;;;;;;;-3.45;100.00;101257.60;110365;1269;22272;-67
2023/02/07 07:31:11;;;;;;;17.90;12.00;;;;;;;-3.41;100.00;101260.08;108049;1273;22595;-66
2023/02/07 07:33:40;;;;;;;19.90;13.20;;;;;;;-3.40;100.00;101258.02;107999;1270;22539;-66
2023/02/07 07:36:08;;;;;;;21.30;14.30;;;;;;;-3.44;100.00;101260.35;107461;1254;24284;-66
2023/02/07 07:38:37;;;;;;;21.10;13.70;;;;;;;-3.41;100.00;101262.55;107410;1276;23004;-66
2023/02/07 07:41:06;;;;;;;24.30;14.30;;;;;;;-3.41;100.00;101267.09;107534;1276;25449;-67
2023/02/07 07:43:39;;;;;;;22.90;14.70;;;;;;;-3.44;100.00;101268.61;107382;1275;23176;-66
2023/02/07 07:46:07;;;;;;;23.40;14.70;;;;;;;-3.41;100.00;101271.80;107496;1269;24379;-66
2023/02/07 07:48:36;;;;;;;25.10;15.40;;;;;;;-3.40;100.00;101272.38;107374;1269;22652;-66
2023/02/07 07:51:04;;;;;;;21.80;14.90;;;;;;;-3.40;100.00;101277.88;107358;1276;22526;-66
2023/02/07 07:53:33;;;;;;;25.20;15.80;;;;;;;-3.37;100.00;101283.81;107500;1271;22553;-66
2023/02/07 07:56:01;;;;;;;23.10;15.40;;;;;;;-3.25;100.00;101290.48;107974;1276;26518;-66
2023/02/07 07:58:31;;;;;;;24.00;16.50;;;;;;;-3.19;100.00;101293.59;107466;1276;25250;-66
2023/02/07 08:01:01;;;;;;;26.00;17.70;;;;;;;-3.14;100.00;101295.27;107559;1276;23367;-66
2023/02/07 08:03:29;;;;;;;26.10;17.00;;;;;;;-3.12;100.00;101300.15;107436;1273;22522;-66
2023/02/07 08:05:58;;;;;;;28.70;17.40;;;;;;;-3.08;100.00;101305.33;107518;1271;25325;-67
2023/02/07 08:08:26;;;;;;;29.30;18.80;;;;;;;-3.06;100.00;101304.62;107439;1269;24439;-67
2023/02/07 08:11:00;;;;;;;30.10;19.10;;;;;;;-2.99;100.00;101308.55;107403;1269;23726;-66
2023/02/07 08:13:29;;;;;;;31.40;20.80;;;;;;;-2.87;100.00;101316.84;107537;1269;23916;-67
2023/02/07 08:16:01;;;;;;;31.20;18.40;;;;;;;-2.69;100.00;101326.61;110297;1272;23362;-67
2023/02/07 08:18:29;;;;;;;30.60;19.40;;;;;;;-2.62;100.00;101327.88;110362;1274;23240;-67
2023/02/07 08:20:58;;;;;;;29.80;19.50;;;;;;;-2.63;100.00;101333.44;110347;1270;22398;-67
2023/02/07 08:23:26;;;;;;;28.30;19.20;;;;;;;-2.60;100.00;101338.53;110347;1270;22366;-67
2023/02/07 08:25:54;;;;;;;28.70;18.20;;;;;;;-2.51;100.00;101340.81;110287;1270;23255;-68
2023/02/07 08:28:23;;;;;;;29.20;18.50;;;;;;;-2.43;100.00;101342.23;110310;1272;22417;-68
2023/02/07 08:30:51;;;;;;;28.50;17.60;;;;;;;-2.48;100.00;101345.02;110366;1272;22421;-67
2023/02/07 08:33:20;;;;;;;29.40;19.50;;;;;;;-2.58;100.00;101343.77;110319;1269;23420;-65
2023/02/07 08:35:49;;;;;;;33.50;20.50;;;;;;;-2.60;100.00;101345.55;110174;1271;22267;-66
2023/02/07 08:38:17;;;;;;;31.00;19.10;;;;;;;-2.48;100.00;101341.64;110318;1270;23348;-66
2023/02/07 08:40:46;;;;;;;25.60;16.90;;;;;;;-2.46;100.00;101336.80;110309;1273;22308;-66
2023/02/07 08:43:14;;;;;;;25.00;16.90;;;;;;;-2.47;100.00;101332.50;110318;1269;22921;-66
2023/02/07 08:45:45;;;;;;;23.10;16.10;;;;;;;-2.47;100.00;101331.95;107759;1276;22525;-65
2023/02/07 08:48:14;;;;;;;23.10;15.50;;;;;;;-2.52;100.00;101332.34;107558;1273;23270;-65
2023/02/07 08:50:44;;;;;;;22.00;14.80;;;;;;;-2.55;100.00;101336.95;107536;1276;25379;-66
2023/02/07 08:53:13;;;;;;;25.10;17.80;;;;;;;-2.60;100.00;101334.10;107620;1273;23457;-65
2023/02/07 08:55:43;;;;;;;24.80;16.30;;;;;;;-2.64;100.00;101331.77;107642;1273;25418;-65
2023/02/07 08:58:11;;;;;;;21.80;15.90;;;;;;;-2.59;100.00;101333.82;107563;1273;26538;-66
2023/02/07 09:00:40;;;;;;;25.30;17.50;;;;;;;-2.62;100.00;101341.86;107530;1269;23357;-66
2023/02/07 09:03:09;;;;;;;25.30;15.60;;;;;;;-2.67;100.00;101340.45;110332;1275;23037;-66
2023/02/07 09:05:39;;;;;;;23.10;15.40;;;;;;;-2.67;100.00;101342.89;110270;1271;22425;-66
2023/02/07 09:08:07;;;;;;;25.70;15.80;;;;;;;-2.68;100.00;101344.23;110322;1273;22356;-67
2023/02/07 09:10:36;;;;;;;23.90;16.40;;;;;;;-2.67;100.00;101343.48;110339;1269;23059;-67
2023/02/07 09:13:06;;;;;;;24.30;16.10;;;;;;;-2.59;100.00;101344.86;110222;1270;22220;-67
2023/02/07 09:15:35;;;;;;;24.40;15.80;;;;;;;-2.54;100.00;101339.83;110293;1271;22368;-66
2023/02/07 09:18:03;;;;;;;26.40;16.70;;;;;;;-2.52;100.00;101342.51;110362;1275;22451;-66
2023/02/07 09:20:31;;;;;;;28.50;18.70;;;;;;;-2.47;100.00;101338.50;110311;1269;22999;-67
2023/02/07 09:23:16;;;;;;;26.90;17.00;;;;;;;-2.37;100.00;101339.61;110392;1274;22846;-66
2023/02/07 09:25:46;;;;;;;25.50;15.90;;;;;;;-2.24;100.00;101338.56;110331;1254;22512;-67
2023/02/07 09:28:14;;;;;;;25.10;15.60;;;;;;;-2.13;100.00;101339.91;110359;1272;22190;-66
2023/02/07 10:16:29;;;;;;;14.80;9.90;;;;;;;-2.27;100.00;101322.48;103607;1307;545527;-64
2023/02/07 10:19:18;;;;;;;14.70;9.00;;;;;;;-2.07;100.00;101325.06;109288;1283;23565;-66
2023/02/07 10:21:58;;;;;;;15.00;9.50;;;;;;;-1.99;100.00;101327.31;109082;1286;22365;-66
2023/02/07 10:24:27;;;;;;;14.20;9.70;;;;;;;-2.00;100.00;101327.08;109213;1283;22464;-66
2023/02/07 10:27:04;;;;;;;14.50;9.80;;;;;;;-2.03;100.00;101326.98;109574;1285;22388;-65
2023/02/07 10:29:59;;;;;;;15.60;10.90;;;;;;;-2.05;100.00;101330.19;109693;1274;115138;-66
2023/02/07 10:32:31;;;;;;;17.70;10.60;;;;;;;-2.03;100.00;101330.23;109816;1275;23164;-66
2023/02/07 10:35:17;;;;;;;15.50;11.10;;;;;;;-2.02;100.00;101333.84;109684;1278;22468;-67
2023/02/07 10:37:48;;;;;;;20.00;11.90;;;;;;;-2.05;100.00;101333.75;109845;1274;22421;-66
2023/02/07 10:40:30;;;;;;;17.80;11.30;;;;;;;-2.09;100.00;101336.08;109885;1281;22215;-66
2023/02/07 10:43:09;;;;;;;18.40;11.40;;;;;;;-2.06;100.00;101336.91;109914;1279;22250;-66
2023/02/07 10:45:38;;;;;;;18.70;11.20;;;;;;;-2.03;100.00;101341.39;109922;1281;22445;-66
2023/02/07 10:48:18;;;;;;;17.40;10.90;;;;;;;-2.00;100.00;101342.20;109927;1280;23207;-66
2023/02/07 10:50:47;;;;;;;16.50;10.60;;;;;;;-2.08;100.00;101340.86;109862;1275;23193;-66
2023/02/07 10:53:44;;;;;;;18.60;10.70;;;;;;;-2.12;100.00;101337.34;109860;1281;22232;-66
2023/02/07 10:56:23;;;;;;;16.10;10.00;;;;;;;-2.18;100.00;101338.77;109825;1274;22352;-65
2023/02/07 10:58:53;;;;;;;16.40;9.90;;;;;;;-2.18;100.00;101335.22;109791;1274;22414;-66
2023/02/07 11:01:22;;;;;;;18.00;10.40;;;;;;;-2.17;100.00;101333.20;109789;1281;22272;-66
2023/02/07 11:03:52;;;;;;;14.70;10.20;;;;;;;-2.16;100.00;101334.73;109808;1281;22227;-65
2023/02/07 11:06:29;;;;;;;18.80;12.10;;;;;;;-2.15;100.00;101331.05;109805;1275;22405;-66
2023/02/07 11:09:21;;;;;;;18.30;11.40;;;;;;;-2.14;100.00;101335.96;109933;1280;22380;-65
2023/02/07 11:11:51;;;;;;;18.20;11.40;;;;;;;-2.11;100.00;101336.55;109892;1275;23591;-65
2023/02/07 11:14:26;;;;;;;15.80;11.50;;;;;;;-2.15;100.00;101331.39;109967;1280;22410;-65
2023/02/07 11:16:56;;;;;;;17.70;12.10;;;;;;;-2.14;100.00;101338.06;109905;1280;22338;-65
2023/02/07 11:19:27;;;;;;;16.00;10.20;;;;;;;-2.12;100.00;101345.36;109884;1280;22235;-65
2023/02/07 11:22:07;;;;;;;14.40;9.40;;;;;;;-2.09;100.00;101348.59;109927;1280;22320;-64
2023/02/07 11:24:37;;;;;;;13.10;7.80;;;;;;;-2.10;100.00;101351.92;109909;1281;22441;-64
2023/02/07 11:27:11;;;;;;;12.30;7.70;;;;;;;-2.17;100.00;101354.35;109868;1281;22207;-64
2023/02/07 11:29:46;;;;;;;12.80;8.30;;;;;;;-2.22;100.00;101355.26;109923;1278;22344;-64
2023/02/07 11:32:14;;;;;;;15.40;9.90;;;;;;;-2.24;100.00;101354.19;109949;1281;22912;-65
2023/02/07 11:34:55;;;;;;;16.20;9.90;;;;;;;-2.16;100.00;101353.77;107920;1281;25435;-63
2023/02/07 11:37:26;;;;;;;11.50;8.00;;;;;;;-2.18;100.00;101357.13;106759;1281;24770;-63
2023/02/07 11:39:56;;;;;;;14.40;8.50;;;;;;;-2.30;100.00;101357.95;106478;1274;25413;-64
2023/02/07 11:42:29;;;;;;;12.50;7.50;;;;;;;-2.36;100.00;101361.42;106473;1273;25416;-65
2023/02/07 11:44:57;;;;;;;11.50;7.50;;;;;;;-2.40;100.00;101362.02;107282;1275;23338;-64
2023/02/07 11:47:27;;;;;;;12.20;7.30;;;;;;;-2.37;100.00;101364.02;107150;1278;22539;-64
2023/02/07 11:49:59;;;;;;;10.00;6.80;;;;;;;-2.39;100.00;101361.72;107328;1257;25394;-65
2023/02/07 11:52:30;;;;;;;10.80;7.40;;;;;;;-2.46;100.00;101365.08;107618;1278;25339;-65
2023/02/07 11:55:00;;;;;;;10.30;6.30;;;;;;;-2.52;100.00;101371.47;107362;1274;22539;-65
2023/02/07 11:57:31;;;;;;;11.00;6.70;;;;;;;-2.59;100.00;101377.46;110357;1276;22351;-65
2023/02/07 12:00:07;;;;;;;9.90;6.60;;;;;;;-2.64;100.00;101375.71;110115;1276;22424;-67
2023/02/07 12:02:44;;;;;;;8.70;5.60;;;;;;;-2.67;100.00;101385.27;110358;1276;22196;-65
2023/02/07 12:05:18;;;;;;;10.70;6.30;;;;;;;-2.62;100.00;101384.93;110013;1276;22342;-66
2023/02/07 12:07:50;;;;;;;9.10;5.80;;;;;;;-2.62;100.00;101388.86;110266;1276;22433;-66